createdAt,value
2023-05-15T00:02:13.076Z,11.02
2023-05-15T00:04:40.080Z,10.65
2023-05-15T00:07:07.036Z,14.00
2023-05-15T00:09:33.709Z,13.43
2023-05-15T00:12:00.673Z,12.70
2023-05-15T00:14:27.327Z,13.73
2023-05-15T00:16:54.157Z,15.30
2023-05-15T00:19:21.127Z,12.57
2023-05-15T00:21:48.090Z,15.13
2023-05-15T00:24:14.886Z,13.88
2023-05-15T00:26:41.745Z,12.63
2023-05-15T00:29:08.489Z,13.35
2023-05-15T00:31:35.302Z,22.20
2023-05-15T00:34:02.156Z,10.90
2023-05-15T00:36:29.057Z,12.40
2023-05-15T00:38:55.863Z,11.77
2023-05-15T00:41:23.404Z,15.05
2023-05-15T00:43:52.346Z,11.82
2023-05-15T00:46:21.108Z,10.77
2023-05-15T00:48:50.196Z,20.85
2023-05-15T00:51:17.531Z,13.73
2023-05-15T00:53:44.892Z,15.90
2023-05-15T00:56:12.967Z,14.80
2023-05-15T00:58:40.065Z,13.80
2023-05-15T01:01:08.400Z,15.13
2023-05-15T01:03:36.137Z,24.10
2023-05-15T01:06:07.224Z,13.00
2023-05-15T01:08:47.148Z,15.57
2023-05-15T01:11:15.943Z,15.73
2023-05-15T01:13:43.329Z,17.15
2023-05-15T01:16:10.827Z,17.90
2023-05-15T01:18:37.806Z,15.63
2023-05-15T01:21:10.658Z,14.32
2023-05-15T01:23:46.553Z,13.75
2023-05-15T01:26:45.733Z,16.42
2023-05-15T01:29:15.047Z,15.00
2023-05-15T01:31:44.477Z,14.55
2023-05-15T01:34:11.472Z,14.38
2023-05-15T01:36:53.662Z,9.45
2023-05-15T01:39:26.282Z,15.48
2023-05-15T01:42:02.778Z,16.55
2023-05-15T01:44:32.470Z,23.02
2023-05-15T01:47:02.020Z,22.20
2023-05-15T01:49:30.953Z,25.08
2023-05-15T01:52:05.210Z,25.30
2023-05-15T01:54:33.769Z,22.00
2023-05-15T01:57:00.759Z,25.60
2023-05-15T01:59:29.173Z,19.05
2023-05-15T02:01:57.866Z,23.92
2023-05-15T02:04:26.333Z,17.27
2023-05-15T02:06:53.769Z,20.15
2023-05-15T02:09:21.950Z,16.83
2023-05-15T02:11:49.132Z,20.30
2023-05-15T02:14:17.479Z,27.40
2023-05-15T02:16:44.453Z,17.83
2023-05-15T02:19:11.324Z,21.17
2023-05-15T02:21:38.083Z,21.60
2023-05-15T02:24:05.015Z,25.80
2023-05-15T02:27:13.246Z,28.48
2023-05-15T02:30:17.713Z,31.83
2023-05-15T02:33:03.045Z,23.13
2023-05-15T02:35:34.017Z,21.77
2023-05-15T02:38:07.805Z,19.77
2023-05-15T02:40:36.545Z,21.67
2023-05-15T02:43:04.355Z,24.02
2023-05-15T02:45:32.518Z,21.08
2023-05-15T02:48:00.266Z,18.48
2023-05-15T02:50:27.185Z,20.73
2023-05-15T02:53:05.425Z,20.13
2023-05-15T02:55:32.261Z,22.10
2023-05-15T02:57:59.314Z,20.15
2023-05-15T03:00:26.725Z,22.17
2023-05-15T03:02:53.632Z,27.73
2023-05-15T03:05:21.079Z,21.10
2023-05-15T03:07:47.922Z,23.17
2023-05-15T03:10:14.709Z,25.95
2023-05-15T03:12:41.438Z,23.27
2023-05-15T03:15:08.608Z,24.00
2023-05-15T03:17:35.429Z,22.25
2023-05-15T03:20:02.493Z,23.70
2023-05-15T03:22:29.156Z,21.98
2023-05-15T03:24:56.097Z,17.13
2023-05-15T03:27:23.002Z,20.55
2023-05-15T03:29:51.026Z,22.73
2023-05-15T03:32:18.029Z,22.02
2023-05-15T03:34:45.044Z,22.75
2023-05-15T03:37:11.777Z,20.85
2023-05-15T03:39:38.680Z,23.52
2023-05-15T03:42:05.603Z,22.58
2023-05-15T03:44:32.377Z,19.65
2023-05-15T03:46:59.240Z,23.70
2023-05-15T03:49:26.262Z,19.45
2023-05-15T03:51:53.183Z,19.70
2023-05-15T03:54:20.071Z,16.27
2023-05-15T03:56:46.879Z,20.17
2023-05-15T03:59:13.480Z,19.70
2023-05-15T04:01:55.349Z,19.75
2023-05-15T04:04:26.966Z,18.58
2023-05-15T04:06:53.684Z,20.73
2023-05-15T04:09:20.502Z,19.25
2023-05-15T04:11:47.491Z,22.23
2023-05-15T04:14:14.192Z,21.10
2023-05-15T04:16:40.952Z,22.75
2023-05-15T04:19:07.937Z,20.08
2023-05-15T04:21:34.904Z,17.25
2023-05-15T04:24:01.876Z,18.50
2023-05-15T04:26:28.849Z,18.13
2023-05-15T04:29:03.846Z,21.38
2023-05-15T04:31:31.825Z,17.80
2023-05-15T04:33:58.781Z,18.42
2023-05-15T04:36:25.854Z,18.85
2023-05-15T04:38:52.775Z,18.17
2023-05-15T04:41:19.604Z,21.05
2023-05-15T04:43:46.936Z,23.77
2023-05-15T04:46:13.698Z,19.92
2023-05-15T04:48:40.617Z,16.45
2023-05-15T04:51:07.794Z,24.30
2023-05-15T04:53:34.708Z,19.58
2023-05-15T04:56:01.628Z,23.10
2023-05-15T04:58:28.837Z,17.33
2023-05-15T05:00:55.558Z,19.83
2023-05-15T05:03:22.754Z,15.27
2023-05-15T05:05:49.696Z,18.73
2023-05-15T05:08:16.408Z,19.95
2023-05-15T05:10:43.044Z,22.38
2023-05-15T05:13:09.727Z,18.75
2023-05-15T05:15:37.335Z,20.88
2023-05-15T05:18:04.504Z,24.60
2023-05-15T05:20:31.264Z,29.15
2023-05-15T05:22:57.912Z,27.45
2023-05-15T05:25:25.055Z,26.73
2023-05-15T05:27:52.042Z,23.20
2023-05-15T05:30:18.981Z,25.75
2023-05-15T05:32:46.181Z,27.45
2023-05-15T05:35:13.729Z,25.23
2023-05-15T05:37:41.390Z,23.35
2023-05-15T05:40:09.046Z,20.92
2023-05-15T05:42:36.001Z,18.00
2023-05-15T05:45:02.935Z,22.60
2023-05-15T05:47:29.734Z,22.25
2023-05-15T05:49:56.673Z,17.30
2023-05-15T05:52:23.387Z,27.73
2023-05-15T05:54:56.542Z,26.58
2023-05-15T05:57:23.272Z,24.42
2023-05-15T05:59:50.026Z,21.40
2023-05-15T06:02:16.822Z,23.38
2023-05-15T06:04:43.566Z,23.23
2023-05-15T06:07:10.525Z,25.65
2023-05-15T06:09:37.482Z,15.05
2023-05-15T06:12:08.631Z,17.10
2023-05-15T06:14:36.186Z,28.77
2023-05-15T06:17:03.062Z,28.30
2023-05-15T06:19:30.358Z,24.67
2023-05-15T06:21:57.173Z,26.92
2023-05-15T06:24:23.771Z,17.33
2023-05-15T06:26:52.334Z,26.33
2023-05-15T06:29:19.274Z,29.60
2023-05-15T06:31:45.944Z,30.88
2023-05-15T06:34:12.765Z,20.38
2023-05-15T06:36:39.483Z,22.70
2023-05-15T06:39:06.165Z,32.63
2023-05-15T06:41:33.062Z,22.33
2023-05-15T06:43:59.813Z,17.02
2023-05-15T06:46:26.577Z,23.88
2023-05-15T06:48:53.222Z,28.95
2023-05-15T06:51:19.962Z,27.38
2023-05-15T06:53:46.643Z,23.15
2023-05-15T06:56:13.314Z,23.38
2023-05-15T06:58:39.929Z,27.67
2023-05-15T07:01:08.308Z,20.73
2023-05-15T07:03:35.052Z,27.23
2023-05-15T07:06:01.728Z,25.17
2023-05-15T07:08:28.449Z,23.38
2023-05-15T07:10:55.282Z,22.75
2023-05-15T07:13:22.088Z,24.65
2023-05-15T07:15:49.137Z,19.92
2023-05-15T07:18:16.027Z,20.20
2023-05-15T07:20:42.929Z,26.90
2023-05-15T07:23:09.773Z,28.42
2023-05-15T07:25:36.885Z,18.85
2023-05-15T07:28:03.752Z,19.17
2023-05-15T07:30:30.610Z,21.38
2023-05-15T07:32:57.626Z,19.38
2023-05-15T07:35:26.423Z,19.58
2023-05-15T07:37:53.419Z,19.98
2023-05-15T07:40:20.185Z,23.25
2023-05-15T07:42:47.206Z,21.52
2023-05-15T07:45:14.162Z,17.10
2023-05-15T07:47:48.354Z,20.45
2023-05-15T07:50:16.066Z,22.00
2023-05-15T07:52:43.220Z,19.42
2023-05-15T07:55:10.944Z,21.40
2023-05-15T07:57:37.793Z,20.38
2023-05-15T08:00:10.268Z,18.60
2023-05-15T08:02:37.199Z,18.90
2023-05-15T08:05:04.403Z,17.90
2023-05-15T08:07:31.848Z,16.20
2023-05-15T08:09:58.555Z,17.23
2023-05-15T08:12:26.293Z,14.85
2023-05-15T08:14:56.850Z,15.20
2023-05-15T08:17:25.207Z,13.85
2023-05-15T08:19:53.367Z,15.38
2023-05-15T08:22:20.250Z,15.52
2023-05-15T08:24:46.904Z,14.98
2023-05-15T08:27:13.653Z,16.60
2023-05-15T08:29:40.522Z,12.60
2023-05-15T08:32:09.133Z,14.20
2023-05-15T08:34:35.931Z,15.52
2023-05-15T08:37:02.656Z,14.32
2023-05-15T08:39:29.316Z,16.88
2023-05-15T08:42:11.163Z,14.88
2023-05-15T08:44:39.473Z,14.60
2023-05-15T08:47:06.893Z,13.18
2023-05-15T08:49:51.493Z,12.52
2023-05-15T08:52:18.202Z,11.10
2023-05-15T08:54:48.548Z,10.75
2023-05-15T08:57:17.134Z,12.18
2023-05-15T08:59:43.956Z,11.18
2023-05-15T09:02:11.032Z,11.77
2023-05-15T09:04:37.742Z,12.82
2023-05-15T09:07:05.576Z,13.25
2023-05-15T09:09:34.334Z,12.27
2023-05-15T09:12:03.920Z,12.55
2023-05-15T09:14:30.622Z,13.00
2023-05-15T09:16:57.378Z,14.27
2023-05-15T09:19:24.074Z,12.35
2023-05-15T09:21:50.803Z,12.48
2023-05-15T09:24:24.942Z,12.35
2023-05-15T09:27:06.353Z,10.98
2023-05-15T09:29:34.753Z,9.30
2023-05-15T09:32:08.499Z,5.20
2023-05-15T09:34:37.575Z,6.25
2023-05-15T09:37:06.768Z,5.03
2023-05-15T09:39:34.703Z,6.47
2023-05-15T09:42:12.530Z,5.60
2023-05-15T09:44:43.736Z,4.10
2023-05-15T09:47:12.212Z,3.70
2023-05-15T09:49:39.349Z,4.97
2023-05-15T09:52:10.799Z,4.22
2023-05-15T09:54:38.372Z,4.43
2023-05-15T09:57:10.659Z,4.00
2023-05-15T09:59:44.287Z,3.65
2023-05-15T10:02:14.195Z,4.10
2023-05-15T10:04:40.909Z,4.55
2023-05-15T10:07:09.226Z,2.95
2023-05-15T10:09:35.864Z,3.85
2023-05-15T10:12:02.928Z,3.97
2023-05-15T10:14:30.327Z,4.40
2023-05-15T10:16:57.418Z,2.78
2023-05-15T10:19:28.163Z,3.90
2023-05-15T10:21:57.246Z,2.85
2023-05-15T10:24:29.063Z,3.28
2023-05-15T10:26:56.948Z,4.60
2023-05-15T10:29:25.714Z,3.83
2023-05-15T10:31:52.706Z,3.03
2023-05-15T10:34:20.394Z,3.15
2023-05-15T10:36:50.321Z,3.42
2023-05-15T10:39:18.073Z,3.03
2023-05-15T10:41:45.945Z,3.45
2023-05-15T10:44:14.991Z,3.45
2023-05-15T10:46:41.939Z,2.65
2023-05-15T10:49:08.657Z,3.28
2023-05-15T10:51:39.629Z,3.63
2023-05-15T10:54:06.570Z,3.38
2023-05-15T10:56:34.154Z,3.38
2023-05-15T10:59:09.388Z,2.97
2023-05-15T11:01:38.695Z,3.05
2023-05-15T11:04:17.352Z,2.95
2023-05-15T11:06:46.178Z,2.65
2023-05-15T11:09:22.262Z,2.88
2023-05-15T11:11:52.812Z,3.13
2023-05-15T11:14:19.879Z,3.65
2023-05-15T11:16:52.751Z,3.75
2023-05-15T11:19:24.826Z,3.10
2023-05-15T11:22:04.213Z,2.80
2023-05-15T11:24:33.156Z,3.67
2023-05-15T11:27:04.896Z,2.50
2023-05-15T11:29:35.205Z,2.88
2023-05-15T11:32:01.890Z,3.00
2023-05-15T11:34:35.132Z,2.53
2023-05-15T11:37:01.920Z,2.50
2023-05-15T11:39:28.707Z,2.35
2023-05-15T11:41:55.579Z,2.75
2023-05-15T11:44:23.813Z,2.30
2023-05-15T11:46:51.553Z,2.30
2023-05-15T11:49:19.792Z,2.88
2023-05-15T11:51:48.700Z,2.45
2023-05-15T11:54:15.562Z,4.00
2023-05-15T11:56:44.645Z,3.13
2023-05-15T11:59:17.370Z,2.25
2023-05-15T12:01:47.812Z,2.42
2023-05-15T12:04:16.568Z,3.17
2023-05-15T12:06:44.876Z,3.38
2023-05-15T12:09:19.584Z,2.60
2023-05-15T12:11:53.698Z,2.58
2023-05-15T12:14:30.706Z,2.63
2023-05-15T12:17:04.712Z,1.92
2023-05-15T12:19:32.017Z,3.00
2023-05-15T12:21:58.942Z,2.67
2023-05-15T12:24:26.988Z,2.55
2023-05-15T12:26:56.619Z,2.65
2023-05-15T12:29:24.258Z,2.67
2023-05-15T12:31:54.205Z,3.35
2023-05-15T12:34:21.887Z,3.72
2023-05-15T12:36:48.658Z,2.42
2023-05-15T12:39:15.404Z,2.90
2023-05-15T12:41:42.081Z,2.97
2023-05-15T12:44:17.272Z,3.35
2023-05-15T12:46:44.032Z,3.42
2023-05-15T12:49:11.869Z,2.65
2023-05-15T12:51:45.166Z,2.67
2023-05-15T12:54:19.334Z,2.95
2023-05-15T12:56:47.903Z,2.83
2023-05-15T12:59:14.642Z,2.60
2023-05-15T13:01:44.778Z,2.83
2023-05-15T13:04:11.866Z,2.47
2023-05-15T13:06:46.408Z,2.65
2023-05-15T13:09:14.209Z,2.90
2023-05-15T13:11:45.408Z,2.83
2023-05-15T13:14:17.522Z,2.53
2023-05-15T13:16:46.853Z,2.78
2023-05-15T13:19:13.824Z,2.75
2023-05-15T13:21:40.583Z,3.15
2023-05-15T13:24:09.940Z,2.78
2023-05-15T13:26:36.784Z,2.47
2023-05-15T13:29:04.035Z,2.90
2023-05-15T13:31:30.998Z,2.53
2023-05-15T13:33:57.672Z,2.42
2023-05-15T13:36:24.309Z,2.67
2023-05-15T13:38:50.965Z,2.90
2023-05-15T13:41:17.880Z,3.80
2023-05-15T13:43:44.574Z,2.63
2023-05-15T13:46:14.384Z,2.40
2023-05-15T13:48:41.123Z,3.50
2023-05-15T13:51:07.770Z,2.75
2023-05-15T13:53:34.422Z,3.00
2023-05-15T13:56:01.142Z,2.83
2023-05-15T13:58:28.231Z,2.67
2023-05-15T14:00:54.931Z,2.80
2023-05-15T14:03:21.707Z,2.95
2023-05-15T14:05:48.400Z,2.92
2023-05-15T14:08:16.031Z,2.63
2023-05-15T14:10:43.672Z,3.33
2023-05-15T14:13:10.435Z,2.35
2023-05-15T14:15:37.084Z,1.98
2023-05-15T14:18:03.780Z,2.92
2023-05-15T14:20:30.524Z,2.75
2023-05-15T14:22:57.145Z,3.35
2023-05-15T14:25:24.592Z,2.40
2023-05-15T14:27:51.300Z,2.65
2023-05-15T14:30:18.472Z,2.75
2023-05-15T14:32:45.229Z,2.92
2023-05-15T14:35:11.876Z,2.95
2023-05-15T14:37:38.626Z,2.50
2023-05-15T14:40:06.987Z,2.60
2023-05-15T14:42:33.748Z,3.13
2023-05-15T14:45:00.367Z,1.85
2023-05-15T14:47:28.562Z,2.60
2023-05-15T14:49:55.630Z,2.85
2023-05-15T14:52:22.529Z,2.53
2023-05-15T14:55:00.761Z,2.45
2023-05-15T14:57:35.147Z,2.33
2023-05-15T15:00:01.952Z,2.55
2023-05-15T15:02:28.622Z,3.05
2023-05-15T15:04:55.456Z,2.35
2023-05-15T15:07:22.074Z,2.05
2023-05-15T15:09:48.830Z,2.25
2023-05-15T15:12:15.620Z,1.77
2023-05-15T15:14:42.245Z,2.60
2023-05-15T15:17:08.824Z,2.50
2023-05-15T15:19:35.423Z,2.60
2023-05-15T15:22:05.684Z,2.22
2023-05-15T15:24:32.458Z,2.53
2023-05-15T15:26:59.072Z,3.60
2023-05-15T15:29:25.787Z,2.55
2023-05-15T15:31:52.467Z,3.05
2023-05-15T15:34:19.167Z,2.20
2023-05-15T15:36:45.813Z,2.67
2023-05-15T15:39:13.180Z,2.63
2023-05-15T15:41:39.973Z,2.47
2023-05-15T15:44:06.656Z,2.45
2023-05-15T15:46:33.463Z,2.78
2023-05-15T15:49:00.324Z,2.67
2023-05-15T15:51:27.254Z,2.50
2023-05-15T15:53:54.094Z,2.67
2023-05-15T15:56:21.388Z,3.17
2023-05-15T15:58:48.090Z,2.35
2023-05-15T16:01:15.005Z,3.15
2023-05-15T16:03:41.739Z,2.92
2023-05-15T16:06:08.446Z,2.60
2023-05-15T16:08:35.017Z,2.78
2023-05-15T16:11:01.824Z,2.30
2023-05-15T16:13:28.503Z,2.60
2023-05-15T16:15:55.165Z,3.25
2023-05-15T16:18:22.250Z,3.40
2023-05-15T16:20:49.049Z,2.83
2023-05-15T16:23:16.465Z,2.78
2023-05-15T16:25:45.756Z,3.55
2023-05-15T16:28:12.759Z,3.83
2023-05-15T16:30:48.926Z,3.33
2023-05-15T16:33:18.158Z,2.80
2023-05-15T16:35:45.619Z,2.38
2023-05-15T16:38:12.264Z,3.35
2023-05-15T16:40:39.270Z,2.35
2023-05-15T16:43:06.308Z,3.63
2023-05-15T16:45:32.964Z,3.90
2023-05-15T16:47:59.698Z,3.25
2023-05-15T16:50:26.790Z,3.75
2023-05-15T16:52:53.727Z,1.95
2023-05-15T16:55:20.459Z,2.97
2023-05-15T16:57:47.329Z,2.53
2023-05-15T17:00:15.914Z,3.08
2023-05-15T17:02:43.416Z,2.47
2023-05-15T17:05:11.316Z,2.72
2023-05-15T17:07:38.760Z,3.40
2023-05-15T17:10:06.855Z,3.42
2023-05-15T17:12:34.094Z,1.83
2023-05-15T17:15:01.016Z,2.40
2023-05-15T17:17:27.990Z,2.42
2023-05-15T17:19:55.903Z,2.72
2023-05-15T17:22:23.061Z,1.58
2023-05-15T17:24:52.221Z,3.80
2023-05-15T17:27:19.483Z,2.75
2023-05-15T17:29:47.028Z,3.58
2023-05-15T17:32:14.006Z,2.63
2023-05-15T17:34:40.723Z,2.97
2023-05-15T17:37:08.053Z,3.28
2023-05-15T17:39:34.934Z,2.78
2023-05-15T17:42:03.433Z,2.40
2023-05-15T17:44:31.160Z,3.67
2023-05-15T17:46:58.848Z,2.40
2023-05-15T17:49:26.477Z,2.45
2023-05-15T17:51:54.020Z,4.05
2023-05-15T17:54:20.820Z,2.28
2023-05-15T17:56:48.575Z,2.17
2023-05-15T17:59:15.610Z,2.33
2023-05-15T18:01:42.628Z,2.67
2023-05-15T18:04:09.447Z,2.30
2023-05-15T18:06:36.194Z,2.38
2023-05-15T18:09:03.410Z,2.50
2023-05-15T18:11:30.015Z,2.05
2023-05-15T18:13:56.920Z,2.92
2023-05-15T18:16:23.824Z,2.10
2023-05-15T18:18:52.193Z,2.47
2023-05-15T18:21:19.272Z,2.38
2023-05-15T18:23:46.146Z,2.35
2023-05-15T18:26:12.917Z,2.38
2023-05-15T18:28:39.663Z,1.98
2023-05-15T18:31:06.596Z,2.28
2023-05-15T18:33:34.365Z,2.03
2023-05-15T18:36:01.344Z,2.20
2023-05-15T18:38:28.547Z,2.22
2023-05-15T18:40:55.239Z,2.63
2023-05-15T18:43:22.087Z,2.25
2023-05-15T18:45:48.885Z,2.30
2023-05-15T18:48:15.771Z,2.38
2023-05-15T18:50:42.626Z,1.83
2023-05-15T18:53:09.280Z,2.85
2023-05-15T18:55:35.929Z,2.15
2023-05-15T18:58:02.523Z,2.83
2023-05-15T19:00:37.949Z,2.25
2023-05-15T19:03:06.018Z,2.10
2023-05-15T19:05:34.272Z,3.13
2023-05-15T19:08:01.542Z,2.60
2023-05-15T19:10:29.498Z,3.38
2023-05-15T19:12:57.520Z,1.63
2023-05-15T19:15:25.481Z,1.92
2023-05-15T19:17:52.337Z,2.15
2023-05-15T19:20:19.818Z,2.92
2023-05-15T19:22:46.818Z,1.95
2023-05-15T19:25:13.578Z,2.05
2023-05-15T19:27:40.437Z,2.10
2023-05-15T19:30:07.905Z,2.15
2023-05-15T19:32:34.889Z,2.10
2023-05-15T19:35:02.082Z,2.03
2023-05-15T19:37:29.086Z,2.40
2023-05-15T19:39:56.748Z,2.50
2023-05-15T19:42:23.429Z,1.83
2023-05-15T19:44:50.183Z,2.38
2023-05-15T19:47:16.962Z,2.72
2023-05-15T19:49:43.780Z,2.00
2023-05-15T19:52:10.530Z,2.42
2023-05-15T19:54:37.297Z,2.30
2023-05-15T19:57:04.264Z,2.20
2023-05-15T19:59:31.001Z,1.60
2023-05-15T20:01:57.811Z,3.08
2023-05-15T20:04:24.504Z,2.35
2023-05-15T20:06:51.291Z,1.85
2023-05-15T20:09:17.880Z,2.78
2023-05-15T20:11:45.357Z,2.97
2023-05-15T20:14:12.094Z,1.92
2023-05-15T20:16:38.781Z,2.10
2023-05-15T20:19:06.051Z,2.63
2023-05-15T20:21:33.020Z,2.28
2023-05-15T20:23:59.758Z,2.13
2023-05-15T20:26:26.429Z,2.00
2023-05-15T20:28:53.113Z,2.13
2023-05-15T20:31:19.798Z,1.63
2023-05-15T20:33:46.682Z,2.28
2023-05-15T20:36:14.251Z,2.03
2023-05-15T20:38:41.396Z,2.58
2023-05-15T20:41:08.214Z,1.83
2023-05-15T20:43:34.887Z,2.45
2023-05-15T20:46:01.577Z,2.47
2023-05-15T20:48:28.298Z,2.28
2023-05-15T20:50:56.076Z,2.30
2023-05-15T20:53:23.042Z,1.77
2023-05-15T20:55:49.847Z,2.53
2023-05-15T20:58:16.570Z,1.80
2023-05-15T21:00:43.381Z,2.50
2023-05-15T21:03:11.831Z,2.03
2023-05-15T21:05:38.485Z,2.17
2023-05-15T21:08:05.791Z,2.15
2023-05-15T21:10:32.540Z,2.20
2023-05-15T21:12:59.763Z,1.80
2023-05-15T21:15:26.670Z,2.50
2023-05-15T21:17:53.479Z,2.28
2023-05-15T21:20:20.176Z,2.10
2023-05-15T21:22:46.965Z,1.00
2023-05-15T21:25:13.772Z,2.00
2023-05-15T21:27:42.224Z,1.55
2023-05-15T21:30:09.606Z,1.98
2023-05-15T21:32:36.687Z,1.65
2023-05-15T21:35:03.702Z,2.45
2023-05-15T21:37:31.144Z,2.00
2023-05-15T21:39:57.948Z,1.90
2023-05-15T21:42:24.598Z,2.17
2023-05-15T21:44:51.362Z,1.88
2023-05-15T21:47:18.130Z,1.35
2023-05-15T21:49:44.853Z,1.88
2023-05-15T21:52:11.579Z,2.80
2023-05-15T21:54:38.292Z,1.50
2023-05-15T21:57:05.341Z,2.10
2023-05-15T21:59:32.336Z,2.53
2023-05-15T22:01:59.170Z,2.22
2023-05-15T22:04:25.922Z,2.03
2023-05-15T22:06:52.572Z,2.03
2023-05-15T22:09:19.393Z,2.25
2023-05-15T22:11:46.316Z,1.88
2023-05-15T22:14:13.134Z,1.77
2023-05-15T22:16:40.001Z,2.10
2023-05-15T22:19:06.956Z,1.75
2023-05-15T22:21:34.162Z,1.77
2023-05-15T22:24:04.308Z,2.53
2023-05-15T22:26:33.273Z,2.13
2023-05-15T22:29:00.127Z,1.52
2023-05-15T22:31:27.416Z,1.45
2023-05-15T22:33:54.223Z,1.70
2023-05-15T22:36:21.399Z,1.88
2023-05-15T22:38:48.398Z,1.60
2023-05-15T22:41:15.311Z,1.83
2023-05-15T22:43:42.344Z,1.85
2023-05-15T22:46:09.251Z,1.80
2023-05-15T22:48:37.131Z,1.73
2023-05-15T22:51:05.152Z,1.92
2023-05-15T22:53:32.093Z,2.05
2023-05-15T22:55:58.729Z,2.03
2023-05-15T22:58:25.467Z,1.55
2023-05-15T23:00:52.324Z,1.73
2023-05-15T23:03:19.280Z,2.13
2023-05-15T23:05:46.512Z,2.38
2023-05-15T23:08:13.378Z,2.08
2023-05-15T23:10:40.146Z,2.65
2023-05-15T23:13:07.024Z,2.28
2023-05-15T23:15:33.882Z,2.00
2023-05-15T23:18:00.951Z,1.73
2023-05-15T23:20:28.032Z,2.28
2023-05-15T23:22:55.135Z,1.30
2023-05-15T23:25:22.223Z,1.95
2023-05-15T23:27:49.475Z,2.45
2023-05-15T23:30:16.516Z,1.92
2023-05-15T23:32:43.436Z,2.47
2023-05-15T23:35:10.431Z,1.65
2023-05-15T23:37:37.286Z,2.33
2023-05-15T23:40:05.534Z,2.10
2023-05-15T23:42:32.305Z,1.77
2023-05-15T23:44:59.169Z,1.63
2023-05-15T23:47:26.088Z,2.03
2023-05-15T23:49:52.866Z,2.10
2023-05-15T23:52:19.586Z,1.48
2023-05-15T23:54:46.698Z,1.80
2023-05-15T23:57:13.554Z,1.80
2023-05-15T23:59:40.495Z,2.13
